createdAt,value
2019-04-14T00:01:28.336Z,83.10
2019-04-14T00:04:14.647Z,83.30
2019-04-14T00:06:46.306Z,83.50
2019-04-14T00:09:20.552Z,83.70
2019-04-14T00:11:51.213Z,83.50
2019-04-14T00:14:22.899Z,83.70
2019-04-14T00:16:53.706Z,84.00
2019-04-14T00:19:24.200Z,83.80
2019-04-14T00:21:54.788Z,84.30
2019-04-14T00:24:25.294Z,84.70
2019-04-14T00:26:57.268Z,84.40
2019-04-14T00:29:28.447Z,84.20
2019-04-14T00:31:59.263Z,84.30
2019-04-14T00:34:36.050Z,85.10
2019-04-14T00:37:25.652Z,85.30
2019-04-14T00:39:59.811Z,85.50
2019-04-14T00:42:38.839Z,85.00
2019-04-14T00:45:38.333Z,84.90
2019-04-14T00:48:11.181Z,84.40
2019-04-14T00:50:38.808Z,85.70
2019-04-14T00:53:09.862Z,86.00
2019-04-14T00:55:40.520Z,85.20
2019-04-14T00:58:11.154Z,84.90
2019-04-14T01:00:42.978Z,84.40
2019-04-14T01:03:13.569Z,84.90
2019-04-14T01:05:44.164Z,85.20
2019-04-14T01:08:16.242Z,85.70
2019-04-14T01:10:47.651Z,86.50
2019-04-14T01:13:18.122Z,86.20
2019-04-14T01:15:58.629Z,86.10
2019-04-14T01:18:21.363Z,85.80
2019-04-14T01:21:11.028Z,85.60
2019-04-14T01:23:43.347Z,85.40
2019-04-14T01:26:13.955Z,85.80
2019-04-14T01:28:44.507Z,85.30
2019-04-14T01:31:16.142Z,84.90
2019-04-14T01:33:46.987Z,85.20
2019-04-14T01:36:19.185Z,86.00
2019-04-14T01:38:51.277Z,85.60
2019-04-14T01:41:22.193Z,86.20
2019-04-14T01:43:53.796Z,85.40
2019-04-14T01:46:27.998Z,86.00
2019-04-14T01:48:56.838Z,86.50
2019-04-14T01:51:46.672Z,85.60
2019-04-14T01:54:35.042Z,85.10
2019-04-14T01:57:24.276Z,85.90
2019-04-14T01:59:55.088Z,86.60
2019-04-14T02:02:27.055Z,86.50
2019-04-14T02:04:57.903Z,85.60
2019-04-14T02:07:29.657Z,85.40
2019-04-14T02:10:00.346Z,85.80
2019-04-14T02:12:30.826Z,86.40
2019-04-14T02:15:02.759Z,86.40
2019-04-14T02:17:33.422Z,86.70
2019-04-14T02:20:04.072Z,86.20
2019-04-14T02:22:35.566Z,85.80
2019-04-14T02:25:07.666Z,86.30
2019-04-14T02:27:38.465Z,85.90
2019-04-14T02:30:12.907Z,86.50
2019-04-14T02:33:17.753Z,86.20
2019-04-14T02:40:55.540Z,86.70
2019-04-14T02:43:23.666Z,87.10
2019-04-14T02:45:55.841Z,87.30
2019-04-14T02:50:56.252Z,89.00
2019-04-14T02:53:23.987Z,88.00
2019-04-14T02:56:08.248Z,88.50
2019-04-14T02:58:38.656Z,88.50
2019-04-14T03:01:07.574Z,88.30
2019-04-14T03:06:21.641Z,88.90
2019-04-14T03:08:47.642Z,88.60
2019-04-14T03:11:09.406Z,88.10
2019-04-14T03:13:45.647Z,88.70
2019-04-14T03:19:27.534Z,89.40
2019-04-14T03:22:07.186Z,89.80
2019-04-14T03:24:44.004Z,90.10
2019-04-14T03:27:40.341Z,90.40
2019-04-14T03:38:12.760Z,90.80
2019-04-14T03:40:39.650Z,91.00
2019-04-14T03:43:19.643Z,91.10
2019-04-14T03:45:54.225Z,90.90
2019-04-14T03:50:56.510Z,91.40
2019-04-14T03:53:26.279Z,91.60
2019-04-14T03:56:14.002Z,91.10
2019-04-14T03:58:42.106Z,91.30
2019-04-14T04:01:12.726Z,91.30
2019-04-14T04:03:43.588Z,91.20
2019-04-14T04:06:14.133Z,91.20
2019-04-14T04:08:44.618Z,91.20
2019-04-14T04:11:15.377Z,91.40
2019-04-14T04:13:45.937Z,91.10
2019-04-14T04:16:20.192Z,91.20
2019-04-14T04:18:58.863Z,91.00
2019-04-14T04:21:29.182Z,91.10
2019-04-14T04:24:19.231Z,91.20
2019-04-14T04:27:11.577Z,91.20
2019-04-14T04:30:01.705Z,91.00
2019-04-14T04:32:53.738Z,91.30
2019-04-14T04:35:52.375Z,91.30
2019-04-14T04:38:37.731Z,91.30
2019-04-14T04:41:08.491Z,91.20
2019-04-14T04:43:38.925Z,91.60
2019-04-14T04:46:09.494Z,91.30
2019-04-14T04:48:39.965Z,91.30
2019-04-14T04:51:11.685Z,91.40
2019-04-14T04:53:42.590Z,91.30
2019-04-14T04:56:14.294Z,91.50
2019-04-14T04:58:45.642Z,91.50
2019-04-14T05:01:16.719Z,91.40
2019-04-14T05:03:47.362Z,91.50
2019-04-14T05:07:10.342Z,91.30
2019-04-14T05:10:13.097Z,91.30
2019-04-14T05:12:47.959Z,91.10
2019-04-14T05:15:40.276Z,90.90
2019-04-14T05:18:22.341Z,90.80
2019-04-14T05:20:53.344Z,90.60
2019-04-14T05:23:23.985Z,90.50
2019-04-14T05:25:55.963Z,89.90
2019-04-14T05:28:27.042Z,89.70
2019-04-14T05:30:57.450Z,89.90
2019-04-14T05:33:29.248Z,89.20
2019-04-14T05:36:00.242Z,89.80
2019-04-14T05:38:32.708Z,89.20
2019-04-14T05:41:03.069Z,88.70
2019-04-14T05:43:41.579Z,88.50
2019-04-14T05:46:05.951Z,87.80
2019-04-14T05:48:36.483Z,87.40
2019-04-14T05:51:06.977Z,87.00
2019-04-14T05:53:37.611Z,86.60
2019-04-14T05:56:08.068Z,87.00
2019-04-14T05:58:38.511Z,85.80
2019-04-14T06:01:11.329Z,86.80
2019-04-14T06:03:43.148Z,86.00
2019-04-14T06:06:13.697Z,86.10
2019-04-14T06:08:44.205Z,86.10
2019-04-14T06:11:15.013Z,84.90
2019-04-14T06:13:45.515Z,84.60
2019-04-14T06:16:16.523Z,84.70
2019-04-14T06:18:46.987Z,84.70
2019-04-14T06:21:17.713Z,84.60
2019-04-14T06:23:48.115Z,83.20
2019-04-14T06:26:18.644Z,83.60
2019-04-14T06:28:49.174Z,82.70
2019-04-14T06:31:47.422Z,82.70
2019-04-14T06:34:28.921Z,82.90
2019-04-14T06:37:07.741Z,82.20
2019-04-14T06:39:41.757Z,82.10
2019-04-14T06:42:12.492Z,82.00
2019-04-14T06:44:42.928Z,81.60
2019-04-14T06:47:13.750Z,81.40
2019-04-14T06:49:49.287Z,80.60
2019-04-14T06:52:16.382Z,81.10
2019-04-14T06:54:46.824Z,80.90
2019-04-14T06:57:17.400Z,79.80
2019-04-14T06:59:48.054Z,79.50
2019-04-14T07:02:18.670Z,78.90
2019-04-14T07:04:49.236Z,79.90
2019-04-14T07:07:19.746Z,79.70
2019-04-14T07:09:51.399Z,79.10
2019-04-14T07:12:22.857Z,78.90
2019-04-14T07:14:53.441Z,78.30
2019-04-14T07:17:23.825Z,77.80
2019-04-14T07:20:01.778Z,77.60
2019-04-14T07:22:26.569Z,76.70
2019-04-14T07:24:57.220Z,76.60
2019-04-14T07:27:27.789Z,76.50
2019-04-14T07:30:09.037Z,76.20
2019-04-14T07:33:05.341Z,75.20
2019-04-14T07:35:57.513Z,74.70
2019-04-14T07:38:46.993Z,74.30
2019-04-14T07:41:42.405Z,73.70
2019-04-14T07:44:22.871Z,73.60
2019-04-14T07:47:12.666Z,72.40
2019-04-14T07:50:14.723Z,72.10
2019-04-14T07:53:11.161Z,71.90
2019-04-14T07:56:03.313Z,71.50
2019-04-14T07:58:51.288Z,70.40
2019-04-14T08:01:32.537Z,70.10
2019-04-14T08:04:20.272Z,70.00
2019-04-14T08:06:52.939Z,68.80
2019-04-14T08:09:23.386Z,68.50
2019-04-14T08:11:53.873Z,67.80
2019-04-14T08:14:24.724Z,66.80
2019-04-14T08:16:55.208Z,65.20
2019-04-14T08:19:25.994Z,65.60
2019-04-14T08:21:56.558Z,65.40
2019-04-14T08:24:27.260Z,66.60
2019-04-14T08:26:57.639Z,66.20
2019-04-14T08:29:28.130Z,65.60
2019-04-14T08:31:58.947Z,65.20
2019-04-14T08:34:29.430Z,64.70
2019-04-14T08:37:00.160Z,63.50
2019-04-14T08:39:30.740Z,63.60
2019-04-14T08:42:11.285Z,65.00
2019-04-14T08:44:43.982Z,64.60
2019-04-14T08:47:29.270Z,63.50
2019-04-14T08:50:18.784Z,62.60
2019-04-14T08:52:57.239Z,62.90
2019-04-14T08:56:08.144Z,63.00
2019-04-14T08:58:57.525Z,62.60
2019-04-14T09:01:34.863Z,62.90
2019-04-14T09:04:17.613Z,61.90
2019-04-14T09:06:59.437Z,61.50
2019-04-14T09:09:42.303Z,63.00
2019-04-14T09:12:16.291Z,60.90
2019-04-14T09:14:56.859Z,61.00
2019-04-14T09:17:19.084Z,61.00
2019-04-14T09:19:49.682Z,60.90
2019-04-14T09:22:20.393Z,59.50
2019-04-14T09:24:50.952Z,59.80
2019-04-14T09:27:21.388Z,60.30
2019-04-14T09:29:52.566Z,59.90
2019-04-14T09:32:23.459Z,59.90
2019-04-14T09:34:54.425Z,60.40
2019-04-14T09:37:24.880Z,59.70
2019-04-14T09:39:55.486Z,58.90
2019-04-14T09:42:26.072Z,58.60
2019-04-14T09:44:56.772Z,59.20
2019-04-14T09:47:27.314Z,58.90
2019-04-14T09:49:58.071Z,58.80
2019-04-14T09:52:28.802Z,59.10
2019-04-14T09:54:59.592Z,58.20
2019-04-14T09:57:30.252Z,59.00
2019-04-14T10:00:01.061Z,59.00
2019-04-14T10:02:32.053Z,58.80
2019-04-14T10:05:02.607Z,58.20
2019-04-14T10:07:33.470Z,57.80
2019-04-14T10:10:04.027Z,58.40
2019-04-14T10:12:35.176Z,56.20
2019-04-14T10:15:06.447Z,56.40
2019-04-14T10:17:37.250Z,55.90
2019-04-14T10:20:07.717Z,55.50
2019-04-14T10:22:38.180Z,56.20
2019-04-14T10:25:08.799Z,53.80
2019-04-14T10:27:39.329Z,54.50
2019-04-14T10:30:11.183Z,54.60
2019-04-14T10:32:41.668Z,54.20
2019-04-14T10:35:12.647Z,55.10
2019-04-14T10:37:43.137Z,54.40
2019-04-14T10:40:13.578Z,53.50
2019-04-14T10:42:44.147Z,54.20
2019-04-14T10:45:18.198Z,54.70
2019-04-14T10:47:47.976Z,54.70
2019-04-14T10:50:30.272Z,52.40
2019-04-14T10:52:50.744Z,54.00
2019-04-14T10:55:21.326Z,54.20
2019-04-14T10:57:52.201Z,52.80
2019-04-14T11:00:22.665Z,53.00
2019-04-14T11:02:53.313Z,52.50
2019-04-14T11:05:25.070Z,52.70
2019-04-14T11:07:55.694Z,53.10
2019-04-14T11:10:26.268Z,52.30
2019-04-14T11:12:57.158Z,51.20
2019-04-14T11:15:27.621Z,50.70
2019-04-14T11:17:58.076Z,50.70
2019-04-14T11:20:28.930Z,50.80
2019-04-14T11:23:03.540Z,51.10
2019-04-14T11:25:31.574Z,51.10
2019-04-14T11:28:02.211Z,49.80
2019-04-14T11:30:32.821Z,49.80
2019-04-14T11:33:17.891Z,50.40
2019-04-14T11:35:59.785Z,49.00
2019-04-14T11:38:38.035Z,50.00
2019-04-14T11:41:12.147Z,50.10
2019-04-14T11:43:42.827Z,48.20
2019-04-14T11:46:13.572Z,48.70
2019-04-14T11:48:44.111Z,47.70
2019-04-14T11:51:14.555Z,48.60
2019-04-14T11:53:46.192Z,49.80
2019-04-14T11:56:16.637Z,48.70
2019-04-14T11:58:47.120Z,46.60
2019-04-14T12:01:51.304Z,44.50
2019-04-14T12:04:37.981Z,43.00
2019-04-14T12:07:42.835Z,42.50
2019-04-14T12:10:15.512Z,41.10
2019-04-14T12:12:46.294Z,41.10
2019-04-14T12:15:16.889Z,39.50
2019-04-14T12:17:47.549Z,37.00
2019-04-14T12:20:18.231Z,37.30
2019-04-14T12:22:48.923Z,36.00
2019-04-14T12:25:19.833Z,35.60
2019-04-14T12:27:51.307Z,34.20
2019-04-14T12:30:22.411Z,34.50
2019-04-14T12:32:52.977Z,35.70
2019-04-14T12:35:23.994Z,33.90
2019-04-14T12:37:54.559Z,32.30
2019-04-14T12:40:25.226Z,29.70
2019-04-14T12:43:08.972Z,29.30
2019-04-14T12:46:06.142Z,27.60
2019-04-14T12:48:53.670Z,27.00
2019-04-14T12:51:36.888Z,26.80
2019-04-14T12:54:07.715Z,26.90
2019-04-14T12:56:38.156Z,26.10
2019-04-14T12:59:18.058Z,25.40
2019-04-14T13:02:01.293Z,24.90
2019-04-14T13:04:31.740Z,24.60
2019-04-14T13:07:03.913Z,25.00
2019-04-14T13:09:34.825Z,25.20
2019-04-14T13:12:05.411Z,24.40
2019-04-14T13:14:36.247Z,24.20
2019-04-14T13:17:07.131Z,24.40
2019-04-14T13:19:37.885Z,24.10
2019-04-14T13:22:08.724Z,23.50
2019-04-14T13:24:39.289Z,23.10
2019-04-14T13:27:10.103Z,23.30
2019-04-14T13:29:40.736Z,23.20
2019-04-14T13:32:11.379Z,23.60
2019-04-14T13:34:42.399Z,23.20
2019-04-14T13:37:13.168Z,23.60
2019-04-14T13:39:43.637Z,22.60
2019-04-14T13:42:14.339Z,22.60
2019-04-14T13:44:44.842Z,23.00
2019-04-14T13:47:15.630Z,23.80
2019-04-14T13:49:46.174Z,23.40
2019-04-14T13:52:17.090Z,23.10
2019-04-14T13:54:48.015Z,23.10
2019-04-14T13:57:18.711Z,22.60
2019-04-14T13:59:49.748Z,22.70
2019-04-14T14:02:20.280Z,22.20
2019-04-14T14:04:51.070Z,22.60
2019-04-14T14:07:21.546Z,22.30
2019-04-14T14:09:52.540Z,22.60
2019-04-14T14:12:37.031Z,22.90
2019-04-14T14:15:19.324Z,22.80
2019-04-14T14:18:21.469Z,22.90
2019-04-14T14:21:11.268Z,22.80
2019-04-14T14:24:09.726Z,22.90
2019-04-14T14:26:41.079Z,23.20
2019-04-14T14:29:11.844Z,22.80
2019-04-14T14:31:42.367Z,22.90
2019-04-14T14:34:13.011Z,23.50
2019-04-14T14:36:43.583Z,23.50
2019-04-14T14:39:16.301Z,23.60
2019-04-14T14:41:46.911Z,23.30
2019-04-14T14:44:17.395Z,23.20
2019-04-14T14:46:59.673Z,23.20
2019-04-14T14:49:49.101Z,23.70
2019-04-14T14:52:20.827Z,24.90
2019-04-14T14:54:51.413Z,25.30
2019-04-14T14:57:22.023Z,24.60
2019-04-14T14:59:52.623Z,25.20
2019-04-14T15:02:23.350Z,24.70
2019-04-14T15:04:53.909Z,24.60
2019-04-14T15:07:24.673Z,24.70
2019-04-14T15:09:55.311Z,24.80
2019-04-14T15:12:25.897Z,25.30
2019-04-14T15:14:56.746Z,25.60
2019-04-14T15:17:28.503Z,25.70
2019-04-14T15:19:59.085Z,26.20
2019-04-14T15:22:29.615Z,26.00
2019-04-14T15:25:00.177Z,26.10
2019-04-14T15:27:30.726Z,26.30
2019-04-14T15:30:02.752Z,26.20
2019-04-14T15:32:34.574Z,26.20
2019-04-14T15:35:05.256Z,26.80
2019-04-14T15:37:35.897Z,26.90
2019-04-14T15:40:07.482Z,26.70
2019-04-14T15:42:38.218Z,26.50
2019-04-14T15:45:09.062Z,26.40
2019-04-14T15:47:40.688Z,26.60
2019-04-14T15:50:11.326Z,26.80
2019-04-14T15:52:42.600Z,27.30
2019-04-14T15:55:14.100Z,27.50
2019-04-14T15:58:12.626Z,28.50
2019-04-14T16:01:01.320Z,28.50
2019-04-14T16:04:02.833Z,28.80
2019-04-14T16:06:58.061Z,29.10
2019-04-14T16:09:40.555Z,30.00
2019-04-14T16:12:22.818Z,30.70
2019-04-14T16:15:08.895Z,31.80
2019-04-14T16:17:53.483Z,32.80
2019-04-14T16:20:32.280Z,33.00
2019-04-14T16:23:02.978Z,32.50
2019-04-14T16:25:51.847Z,32.70
2019-04-14T16:28:27.740Z,33.20
2019-04-14T16:31:15.983Z,34.50
2019-04-14T16:34:20.873Z,34.40
2019-04-14T16:36:51.805Z,34.80
2019-04-14T16:39:22.393Z,35.10
2019-04-14T16:41:53.005Z,35.20
2019-04-14T16:44:23.947Z,35.60
2019-04-14T16:46:54.777Z,36.60
2019-04-14T16:49:25.421Z,37.60
2019-04-14T16:51:59.415Z,38.70
2019-04-14T16:54:55.297Z,38.50
2019-04-14T16:57:44.770Z,39.00
2019-04-14T17:00:23.210Z,40.10
2019-04-14T17:02:54.066Z,40.50
2019-04-14T17:05:24.734Z,41.40
2019-04-14T17:07:56.371Z,41.50
2019-04-14T17:10:26.964Z,41.10
2019-04-14T17:12:59.126Z,41.30
2019-04-14T17:15:38.017Z,42.00
2019-04-14T17:18:18.614Z,42.50
2019-04-14T17:21:06.156Z,42.90
2019-04-14T17:24:02.521Z,43.50
2019-04-14T17:26:50.719Z,43.80
2019-04-14T17:29:29.748Z,44.20
2019-04-14T17:32:17.703Z,43.70
2019-04-14T17:35:16.180Z,44.10
2019-04-14T17:37:54.013Z,44.60
2019-04-14T17:40:42.775Z,45.30
2019-04-14T17:43:35.229Z,46.00
2019-04-14T17:46:23.519Z,46.30
2019-04-14T17:49:13.412Z,46.30
2019-04-14T17:52:03.022Z,46.30
2019-04-14T17:54:51.845Z,46.80
2019-04-14T17:57:40.473Z,47.40
2019-04-14T18:00:19.294Z,47.90
2019-04-14T18:02:56.337Z,47.80
2019-04-14T18:05:43.173Z,47.80
2019-04-14T18:08:35.777Z,47.70
2019-04-14T18:11:34.350Z,48.30
2019-04-14T18:14:23.728Z,48.70
2019-04-14T18:17:13.283Z,48.60
2019-04-14T18:20:05.819Z,48.50
2019-04-14T18:22:36.385Z,49.10
2019-04-14T18:25:07.655Z,49.80
2019-04-14T18:27:49.322Z,49.60
2019-04-14T18:30:27.266Z,49.60
2019-04-14T18:33:09.810Z,50.20
2019-04-14T18:35:59.534Z,50.80
2019-04-14T18:38:47.500Z,50.20
2019-04-14T18:41:39.730Z,50.50
2019-04-14T18:44:32.183Z,50.40
2019-04-14T18:47:20.537Z,49.60
2019-04-14T18:50:14.324Z,49.60
2019-04-14T18:53:06.942Z,50.50
2019-04-14T18:55:55.334Z,50.80
2019-04-14T18:58:57.602Z,50.30
2019-04-14T19:01:34.836Z,50.20
2019-04-14T19:04:05.635Z,51.40
2019-04-14T19:06:36.540Z,51.10
2019-04-14T19:09:08.141Z,51.20
2019-04-14T19:11:50.247Z,51.40
2019-04-14T19:14:25.340Z,51.90
2019-04-14T19:17:03.298Z,52.40
2019-04-14T19:19:35.285Z,52.90
2019-04-14T19:22:06.174Z,52.90
2019-04-14T19:24:36.987Z,53.30
2019-04-14T19:27:07.747Z,53.30
2019-04-14T19:32:50.983Z,54.20
2019-04-14T19:35:23.561Z,54.30
2019-04-14T19:37:54.691Z,54.80
2019-04-14T19:40:25.717Z,55.40
2019-04-14T19:42:56.743Z,55.50
2019-04-14T19:45:27.435Z,55.10
2019-04-14T19:47:57.998Z,55.00
2019-04-14T19:50:29.052Z,55.50
2019-04-14T19:52:59.528Z,56.00
2019-04-14T19:55:30.829Z,56.10
2019-04-14T19:58:01.304Z,56.30
2019-04-14T20:00:31.936Z,55.90
2019-04-14T20:03:02.850Z,56.00
2019-04-14T20:05:33.730Z,56.30
2019-04-14T20:08:04.522Z,55.90
2019-04-14T20:10:35.451Z,56.10
2019-04-14T20:13:06.434Z,56.30
2019-04-14T20:15:43.444Z,56.70
2019-04-14T20:18:33.325Z,56.50
2019-04-14T20:21:26.338Z,56.70
2019-04-14T20:24:04.306Z,57.00
2019-04-14T20:27:08.881Z,56.60
2019-04-14T20:29:47.098Z,56.60
2019-04-14T20:32:35.547Z,57.10
2019-04-14T20:35:13.121Z,57.30
2019-04-14T20:37:43.955Z,57.60
2019-04-14T20:40:14.729Z,58.00
2019-04-14T20:42:45.417Z,58.20
2019-04-14T20:45:16.869Z,58.50
2019-04-14T20:47:47.641Z,58.80
2019-04-14T20:50:18.490Z,58.70
2019-04-14T20:52:49.066Z,58.80
2019-04-14T20:55:27.733Z,59.10
2019-04-14T20:57:58.448Z,59.10
2019-04-14T21:00:29.645Z,59.40
2019-04-14T21:03:17.710Z,59.70
2019-04-14T21:06:05.149Z,60.00
2019-04-14T21:08:58.401Z,60.10
2019-04-14T21:11:47.273Z,60.50
2019-04-14T21:14:28.656Z,59.20
2019-04-14T21:17:12.796Z,60.20
2019-04-14T21:19:48.269Z,60.30
2019-04-14T21:22:41.926Z,61.10
2019-04-14T21:25:40.924Z,61.50
2019-04-14T21:28:30.482Z,60.90
2019-04-14T21:31:20.380Z,60.90
2019-04-14T21:34:06.206Z,61.00
2019-04-14T21:36:54.775Z,61.00
2019-04-14T21:42:50.480Z,61.70
2019-04-14T21:45:21.642Z,61.90
2019-04-14T21:47:52.470Z,61.80
2019-04-14T21:50:23.520Z,62.20
2019-04-14T21:52:54.400Z,62.70
2019-04-14T21:55:25.236Z,63.40
2019-04-14T21:58:14.917Z,63.80
2019-04-14T22:02:09.921Z,64.20
2019-04-14T22:04:56.723Z,64.40
2019-04-14T22:08:01.430Z,65.00
2019-04-14T22:10:39.113Z,65.00
2019-04-14T22:13:09.984Z,65.10
2019-04-14T22:15:40.815Z,65.40
2019-04-14T22:18:11.365Z,65.40
2019-04-14T22:20:42.343Z,65.30
2019-04-14T22:23:13.935Z,65.60
2019-04-14T22:25:44.972Z,66.10
2019-04-14T22:28:15.589Z,66.50
2019-04-14T22:30:46.339Z,66.70
2019-04-14T22:33:17.009Z,66.60
2019-04-14T22:35:47.750Z,66.60
2019-04-14T22:38:18.253Z,66.60
2019-04-14T22:40:48.905Z,66.90
2019-04-14T22:43:19.516Z,66.90
2019-04-14T22:45:50.347Z,66.90
2019-04-14T22:48:20.760Z,67.10
2019-04-14T22:50:51.607Z,67.30
2019-04-14T22:53:22.329Z,67.50
2019-04-14T22:55:53.077Z,67.80
2019-04-14T22:58:23.718Z,68.20
2019-04-14T23:01:02.570Z,68.60
2019-04-14T23:03:50.892Z,69.10
2019-04-14T23:06:54.739Z,69.60
2019-04-14T23:09:53.096Z,70.20
2019-04-14T23:12:42.717Z,69.80
2019-04-14T23:15:30.964Z,69.40
2019-04-14T23:18:19.054Z,69.60
2019-04-14T23:20:55.103Z,70.20
2019-04-14T23:23:33.946Z,70.60
2019-04-14T23:26:05.114Z,71.80
2019-04-14T23:28:35.986Z,71.20
2019-04-14T23:31:06.648Z,70.80
2019-04-14T23:33:37.578Z,71.20
2019-04-14T23:36:08.698Z,71.40
2019-04-14T23:38:39.913Z,71.60
2019-04-14T23:41:10.662Z,72.20
2019-04-14T23:43:41.235Z,72.80
2019-04-14T23:46:11.744Z,72.90
2019-04-14T23:48:43.658Z,72.80
2019-04-14T23:51:14.125Z,73.50
2019-04-14T23:53:45.041Z,73.40
2019-04-14T23:56:15.837Z,74.00
2019-04-14T23:58:46.458Z,73.40
